EDT,Max TemperatureF,Mean TemperatureF,Min TemperatureF,Max Dew PointF,MeanDew PointF,Min DewpointF,Max Humidity, Mean Humidity, Min Humidity, Max Sea Level PressureIn, Mean Sea Level PressureIn, Min Sea Level PressureIn, Max VisibilityMiles, Mean VisibilityMiles, Min VisibilityMiles, Max Wind SpeedMPH, Mean Wind SpeedMPH, Max Gust SpeedMPH,PrecipitationIn, CloudCover, Events, WindDirDegrees
2013-5-1,71,60,48,55,45,36,100,60,27,30.43,30.36,30.29,10,10,10,8,3,,0.00,2,,50
2013-5-2,69,54,39,52,46,39,100,76,38,30.44,30.39,30.33,10,10,5,8,3,,0.00,0,,51
2013-5-3,71,56,41,54,44,39,100,72,33,30.38,30.33,30.28,10,8,1,9,2,16,0.00,2,,81
2013-5-4,69,56,42,46,44,36,93,67,38,30.34,30.26,30.18,10,10,7,9,3,,0.00,3,,61
2013-5-5,64,52,39,48,43,39,100,73,45,30.26,30.20,30.14,10,9,2,8,3,,0.00,3,,61
2013-5-6,62,55,48,61,55,46,100,95,82,30.18,30.11,30.02,10,8,3,9,4,,0.01,8,Rain,41
2013-5-7,64,60,57,64,61,57,100,99,94,30.04,29.97,29.89,10,8,1,9,5,16,1.83,8,Rain-Thunderstorm,50
2013-5-8,68,60,53,61,57,54,100,92,64,30.02,29.98,29.94,10,7,0,12,1,,0.20,6,Fog-Rain-Thunderstorm,232
2013-5-9,77,64,51,64,58,52,100,85,50,30.04,29.99,29.94,10,7,0,7,1,,0.00,4,Fog-Rain,216
2013-5-10,86,68,51,66,57,52,100,69,33,30.03,29.97,29.87,10,8,1,12,3,22,0.11,1,Rain-Thunderstorm,200
2013-5-11,80,71,62,66,62,57,100,73,45,29.82,29.77,29.72,10,9,3,13,7,20,0.25,,Rain-Thunderstorm,217
2013-5-12,66,56,46,64,41,27,100,54,26,30.06,29.89,29.77,10,9,3,15,4,23,0.00,,Rain,312
2013-5-13,62,50,39,54,33,25,100,55,25,30.19,30.11,30.06,10,10,10,15,4,25,0.00,,,301
2013-5-14,68,50,33,48,38,32,100,62,30,30.24,30.15,30.04,10,10,10,8,1,,0.00,,Rain,172
2013-5-15,89,68,48,64,54,45,100,64,38,30.04,29.87,29.71,10,10,10,14,3,22,0.00,,,212
2013-5-16,86,73,60,64,58,54,88,58,37,29.96,29.86,29.79,10,10,10,12,3,,0.00,8,Rain,262
2013-5-17,84,70,55,63,57,48,100,64,30,30.15,30.06,29.94,10,10,5,10,2,,0.00,8,,143
2013-5-18,69,64,60,63,61,54,100,94,64,30.24,30.20,30.14,10,7,1,6,1,,0.18,,Rain,157
2013-5-19,75,68,60,70,65,61,100,96,83,30.21,30.16,30.10,10,7,1,5,1,,0.11,,Rain,8
2013-5-20,82,73,64,70,68,64,100,87,58,30.13,30.06,29.99,10,8,1,9,2,,0.07,,Rain,204
2013-5-21,84,75,66,72,70,66,100,86,62,30.03,29.97,29.90,10,8,4,7,2,,0.00,0,,190
2013-5-22,89,78,66,72,70,64,100,80,46,29.96,29.90,29.85,10,8,2,15,4,22,0.01,2,Rain,194
2013-5-23,80,71,62,72,67,63,100,86,58,29.92,29.86,29.78,10,10,4,15,4,22,0.37,2,Rain-Thunderstorm,195
2013-5-24,62,56,50,63,47,34,100,69,39,30.20,29.98,29.78,10,9,2,23,7,33,0.01,0,Rain,335
2013-5-25,68,57,46,43,36,32,67,47,28,30.24,30.19,30.13,10,10,10,14,9,24,0.00,0,,319
2013-5-26,75,60,44,48,39,30,93,54,19,30.26,30.20,30.14,10,10,10,13,2,17,0.00,0,,310
2013-5-27,69,56,44,57,47,41,100,68,35,30.30,30.25,30.20,10,10,10,9,1,,0.00,1,Rain,284
2013-5-28,86,70,53,68,61,54,100,82,48,30.22,30.14,30.08,10,9,3,8,2,16,0.01,2,Rain-Thunderstorm,195
2013-5-29,91,76,62,70,65,63,100,71,40,30.15,30.12,30.09,10,8,1,10,3,17,0.00,0,,199
2013-5-30,91,76,62,70,66,63,100,69,43,30.21,30.17,30.13,10,10,2,9,2,,0.00,0,,186
2013-5-31,91,76,60,68,64,61,100,69,38,30.18,30.12,30.05,10,9,0,15,3,23,0.00,,Fog,200